Thorco Attraction — V2BS1 — position and weather

sailwx.info

Track history (hours):
 
Tides and Currents Weather Stations Pressure Air Temp Water Temp Dewpoint Dewpoint Depression Visibility Wind Speed Wind Dir Waves Ship Positions

Thorco Attraction

Last reported at 2016-Aug-06 02:32 UTC. Time now 2016-Aug-27 18:51 UTC.
Position S 29°29' E 032°59'.
Warning: this ship's position is 21 days out of date.

Length 132 m; draft 7.3 m.

Type: Ship. MMSI: 304908000.

Date/timePositionNaut miles runAvg speedWind from/ knotsBaromVisibWave heightAir tempDewpointWater temp
2016-Aug-06 02:32S 29°29' E 032°59'1212.0
2016-Aug-06 01:34S 29°31' E 032°46'1111.4
2016-Aug-06 00:34S 29°34' E 032°33'2211.1
2016-Aug-05 22:33S 29°38' E 032°09'2311.4
2016-Aug-05 20:33S 29°43' E 031°43'1211.6
2016-Aug-05 19:34S 29°46' E 031°30'1211.6
2016-Aug-05 18:33S 29°48' E 031°17'1211.6
2016-Aug-05 17:34S 29°52' E 031°04'1 1.4
2016-Aug-05 16:33S 29°52' E 031°03'0 0.0
2016-Aug-05 15:33S 29°52' E 031°03'0 0.0
2016-Aug-05 14:33S 29°52' E 031°03'0 0.0
2016-Aug-05 13:33S 29°52' E 031°03'0 0.0
2016-Aug-05 12:33S 29°52' E 031°03'0 0.0
2016-Aug-05 11:33S 29°52' E 031°03'0 0.0
2016-Aug-05 10:33S 29°52' E 031°03'0 0.0
2016-Aug-05 09:27S 29°52' E 031°03'0 0.0
2016-Aug-05 08:33S 29°52' E 031°03'0 0.0
2016-Aug-05 07:33S 29°52' E 031°03'0 0.0
2016-Aug-05 06:33S 29°52' E 031°03'0 0.0
2016-Aug-05 04:33S 29°52' E 031°03'0 0.0
2016-Aug-05 03:33S 29°52' E 031°03'0 0.0
2016-Aug-05 02:33S 29°52' E 031°03'0 0.0
2016-Aug-05 01:33S 29°52' E 031°03'0 0.0
2016-Aug-05 00:33S 29°52' E 031°03'0 0.0
2016-Aug-04 23:33S 29°52' E 031°03'0 0.0
2016-Aug-04 22:33S 29°52' E 031°03'0 0.0
2016-Aug-04 21:33S 29°52' E 031°03'0 0.0
2016-Aug-04 20:33S 29°52' E 031°03'0 0.0
2016-Aug-04 19:30S 29°52' E 031°03'0 0.0
2016-Aug-04 18:33S 29°52' E 031°03'0 0.0
2016-Aug-04 17:33S 29°52' E 031°03'0 0.0
2016-Aug-04 16:30S 29°52' E 031°03'0 0.0
2016-Aug-04 15:30S 29°52' E 031°03'0 0.0
2016-Aug-04 14:30S 29°52' E 031°03'0 0.0
2016-Aug-04 13:33S 29°52' E 031°03'0 0.0
2016-Aug-04 12:33S 29°52' E 031°03'0 0.0
2016-Aug-04 11:33S 29°52' E 031°03'2 2.4
2016-Aug-04 10:33S 29°51' E 031°05'4 4.3
2016-Aug-04 09:33S 29°47' E 031°07'4 4.2
2016-Aug-04 08:30S 29°43' E 031°09'0 0.0
2016-Aug-04 07:33S 29°43' E 031°09'0 0.0
2016-Aug-04 06:33S 29°43' E 031°09'0 0.0
2016-Aug-04 04:33S 29°43' E 031°09'0 0.0
2016-Aug-04 03:33S 29°43' E 031°09'0 0.0
2016-Aug-04 02:33S 29°43' E 031°09'0 0.0
2016-Aug-04 01:33S 29°43' E 031°09'0 0.0
2016-Aug-04 00:33S 29°43' E 031°09'0 0.0
2016-Aug-03 23:33S 29°43' E 031°09'0 0.0
2016-Aug-03 22:33S 29°43' E 031°09'0 0.0
2016-Aug-03 21:33S 29°43' E 031°08'0 0.0
2016-Aug-03 20:33S 29°43' E 031°08'0 0.0
2016-Aug-03 19:33S 29°43' E 031°09'0 0.0
2016-Aug-03 18:33S 29°43' E 031°09'2 1.6
2016-Aug-03 17:34S 29°44' E 031°07'1 0.6
2016-Aug-03 16:33S 29°44' E 031°07'0 0.0
2016-Aug-03 15:34S 29°44' E 031°07'0 0.3
2016-Aug-03 14:34S 29°44' E 031°07'0 0.3
2016-Aug-03 13:34S 29°44' E 031°07'8 7.6
2016-Aug-03 12:33S 29°52' E 031°10'10 9.8
2016-Aug-03 11:33S 30°01' E 031°07'1010.1
2016-Aug-03 10:33S 30°11' E 031°03'9 9.4
2016-Aug-03 09:34S 30°19' E 030°59'11 9.0
2016-Aug-03 08:17S 30°29' E 030°52'6 8.0
2016-Aug-03 07:34S 30°34' E 030°49'  
Track history (hours):
 
Tides and Currents Weather Stations Pressure Air Temp Water Temp Dewpoint Dewpoint Depression Visibility Wind Speed Wind Dir Waves Ship Positions

Thorco Attraction

Last reported at 2016-Aug-06 02:32 UTC. Time now 2016-Aug-27 18:51 UTC.
Position S 29°29' E 032°59'.
Warning: this ship's position is 21 days out of date.

Length 132 m; draft 7.3 m.

Type: Ship. MMSI: 304908000.

Date/timePositionNaut miles runAvg speedWind from/ knotsBaromVisibWave heightAir tempDewpointWater temp
2016-Aug-06 02:32S 29°29' E 032°59'1212.0
2016-Aug-06 01:34S 29°31' E 032°46'1111.4
2016-Aug-06 00:34S 29°34' E 032°33'2211.1
2016-Aug-05 22:33S 29°38' E 032°09'2311.4
2016-Aug-05 20:33S 29°43' E 031°43'1211.6
2016-Aug-05 19:34S 29°46' E 031°30'1211.6
2016-Aug-05 18:33S 29°48' E 031°17'1211.6
2016-Aug-05 17:34S 29°52' E 031°04'1 1.4
2016-Aug-05 16:33S 29°52' E 031°03'0 0.0
2016-Aug-05 15:33S 29°52' E 031°03'0 0.0
2016-Aug-05 14:33S 29°52' E 031°03'0 0.0
2016-Aug-05 13:33S 29°52' E 031°03'0 0.0
2016-Aug-05 12:33S 29°52' E 031°03'0 0.0
2016-Aug-05 11:33S 29°52' E 031°03'0 0.0
2016-Aug-05 10:33S 29°52' E 031°03'0 0.0
2016-Aug-05 09:27S 29°52' E 031°03'0 0.0
2016-Aug-05 08:33S 29°52' E 031°03'0 0.0
2016-Aug-05 07:33S 29°52' E 031°03'0 0.0
2016-Aug-05 06:33S 29°52' E 031°03'0 0.0
2016-Aug-05 04:33S 29°52' E 031°03'0 0.0
2016-Aug-05 03:33S 29°52' E 031°03'0 0.0
2016-Aug-05 02:33S 29°52' E 031°03'0 0.0
2016-Aug-05 01:33S 29°52' E 031°03'0 0.0
2016-Aug-05 00:33S 29°52' E 031°03'0 0.0
2016-Aug-04 23:33S 29°52' E 031°03'0 0.0
2016-Aug-04 22:33S 29°52' E 031°03'0 0.0
2016-Aug-04 21:33S 29°52' E 031°03'0 0.0
2016-Aug-04 20:33S 29°52' E 031°03'0 0.0
2016-Aug-04 19:30S 29°52' E 031°03'0 0.0
2016-Aug-04 18:33S 29°52' E 031°03'0 0.0
2016-Aug-04 17:33S 29°52' E 031°03'0 0.0
2016-Aug-04 16:30S 29°52' E 031°03'0 0.0
2016-Aug-04 15:30S 29°52' E 031°03'0 0.0
2016-Aug-04 14:30S 29°52' E 031°03'0 0.0
2016-Aug-04 13:33S 29°52' E 031°03'0 0.0
2016-Aug-04 12:33S 29°52' E 031°03'0 0.0
2016-Aug-04 11:33S 29°52' E 031°03'2 2.4
2016-Aug-04 10:33S 29°51' E 031°05'4 4.3
2016-Aug-04 09:33S 29°47' E 031°07'4 4.2
2016-Aug-04 08:30S 29°43' E 031°09'0 0.0
2016-Aug-04 07:33S 29°43' E 031°09'0 0.0
2016-Aug-04 06:33S 29°43' E 031°09'0 0.0
2016-Aug-04 04:33S 29°43' E 031°09'0 0.0
2016-Aug-04 03:33S 29°43' E 031°09'0 0.0
2016-Aug-04 02:33S 29°43' E 031°09'0 0.0
2016-Aug-04 01:33S 29°43' E 031°09'0 0.0
2016-Aug-04 00:33S 29°43' E 031°09'0 0.0
2016-Aug-03 23:33S 29°43' E 031°09'0 0.0
2016-Aug-03 22:33S 29°43' E 031°09'0 0.0
2016-Aug-03 21:33S 29°43' E 031°08'0 0.0
2016-Aug-03 20:33S 29°43' E 031°08'0 0.0
2016-Aug-03 19:33S 29°43' E 031°09'0 0.0
2016-Aug-03 18:33S 29°43' E 031°09'2 1.6
2016-Aug-03 17:34S 29°44' E 031°07'1 0.6
2016-Aug-03 16:33S 29°44' E 031°07'0 0.0
2016-Aug-03 15:34S 29°44' E 031°07'0 0.3
2016-Aug-03 14:34S 29°44' E 031°07'0 0.3
2016-Aug-03 13:34S 29°44' E 031°07'8 7.6
2016-Aug-03 12:33S 29°52' E 031°10'10 9.8
2016-Aug-03 11:33S 30°01' E 031°07'1010.1
2016-Aug-03 10:33S 30°11' E 031°03'9 9.4
2016-Aug-03 09:34S 30°19' E 030°59'11 9.0
2016-Aug-03 08:17S 30°29' E 030°52'6 8.0
2016-Aug-03 07:34S 30°34' E 030°49'  

Dump ship's entire track history